Time;durP1;ratioP1;P1;durP2;ratioP2;P2;SDS_P1;SDS_P2;PMS_P1;PMS_P2;Temp;Humidity;BMP_temperature;BMP_pressure;BME280_temperature;BME280_humidity;BME280_pressure;Samples;Min_cycle;Max_cycle;Signal;HPM_P1;HPM_P2
2022/06/16 00:00:31;;;;;;;4.45;3.13;;;16.30;82.10;;;;;;4964556;28;20254;-81
2022/06/16 00:02:58;;;;;;;5.15;3.28;;;16.30;82.20;;;;;;4979856;28;20205;-81
2022/06/16 00:05:28;;;;;;;5.63;3.55;;;16.30;82.30;;;;;;4981401;28;20233;-81
2022/06/16 00:07:55;;;;;;;7.53;3.90;;;16.20;91.20;;;;;;4974763;28;20285;-81
2022/06/16 00:10:23;;;;;;;6.45;3.58;;;16.20;94.30;;;;;;4977884;28;20238;-81
2022/06/16 00:12:50;;;;;;;5.93;4.00;;;16.00;97.40;;;;;;4969338;28;20272;-80
2022/06/16 00:15:21;;;;;;;5.63;3.73;;;16.00;99.10;;;;;;4980920;28;20214;-81
2022/06/16 00:17:48;;;;;;;6.47;4.17;;;15.70;99.90;;;;;;4982104;28;20566;-80
2022/06/16 00:20:15;;;;;;;8.00;3.53;;;15.70;99.90;;;;;;4980609;28;20766;-80
2022/06/16 00:22:42;;;;;;;6.50;3.83;;;15.60;99.90;;;;;;4988972;28;20240;-81
2022/06/16 00:25:11;;;;;;;6.33;3.57;;;15.40;99.90;;;;;;4964366;28;20695;-80
2022/06/16 00:27:38;;;;;;;6.63;4.00;;;15.40;99.90;;;;;;4977534;28;20642;-80
2022/06/16 00:30:07;;;;;;;5.53;3.80;;;15.40;99.90;;;;;;4968434;28;20966;-80
2022/06/16 00:32:37;;;;;;;6.10;3.60;;;15.40;99.90;;;;;;4976469;28;20578;-81
2022/06/16 00:35:05;;;;;;;6.93;3.87;;;15.40;99.90;;;;;;4972345;28;20217;-80
2022/06/16 00:37:31;;;;;;;5.50;3.47;;;15.30;99.90;;;;;;4959153;28;20236;-80
2022/06/16 00:39:58;;;;;;;6.30;4.17;;;15.40;99.90;;;;;;4975351;28;20252;-81
2022/06/16 00:42:26;;;;;;;6.47;3.90;;;15.10;99.90;;;;;;4964185;28;20242;-80
2022/06/16 00:44:56;;;;;;;5.23;3.77;;;15.20;99.90;;;;;;4971905;28;20265;-80
2022/06/16 00:47:27;;;;;;;5.23;3.53;;;15.10;99.90;;;;;;4973491;28;20209;-80
2022/06/16 00:50:00;;;;;;;6.10;3.77;;;15.20;99.90;;;;;;4975193;28;20234;-80
2022/06/16 00:52:32;;;;;;;4.77;3.40;;;14.90;99.90;;;;;;4982165;28;20206;-80
2022/06/16 00:55:04;;;;;;;5.87;4.17;;;14.90;99.90;;;;;;4970595;28;20238;-81
2022/06/16 00:57:35;;;;;;;5.93;3.73;;;15.00;99.90;;;;;;4975989;28;20217;-80
2022/06/16 01:00:07;;;;;;;7.83;4.20;;;14.90;99.90;;;;;;4983806;28;20222;-80
2022/06/16 01:02:34;;;;;;;6.40;3.60;;;14.90;99.90;;;;;;4985115;28;20265;-80
2022/06/16 01:05:01;;;;;;;6.93;3.47;;;14.80;99.90;;;;;;4985591;28;20601;-80
2022/06/16 01:07:31;;;;;;;7.23;3.70;;;14.70;99.90;;;;;;4985319;28;20254;-80
2022/06/16 01:10:00;;;;;;;6.73;3.80;;;14.90;99.90;;;;;;4984797;28;20221;-81
2022/06/16 01:15:55;;;;;;;8.30;4.17;;;14.90;99.90;;;;;;4967449;28;20932;-81
2022/06/16 01:18:31;;;;;;;4.60;3.90;;;14.70;99.90;;;;;;4985722;28;20720;-81
2022/06/16 01:21:06;;;;;;;6.93;3.67;;;14.70;99.90;;;;;;4985384;28;20752;-80
2022/06/16 01:24:06;;;;;;;6.07;4.03;;;14.60;99.90;;;;;;4985353;28;20181;-81
2022/06/16 01:27:03;;;;;;;4.33;3.90;;;14.60;99.90;;;;;;4984604;28;20198;-80
2022/06/16 01:29:39;;;;;;;6.43;4.07;;;14.70;99.90;;;;;;4985648;28;20261;-79
2022/06/16 01:32:13;;;;;;;5.57;3.97;;;14.60;99.90;;;;;;4986265;28;20261;-80
2022/06/16 01:34:46;;;;;;;7.53;4.17;;;14.50;99.90;;;;;;4985552;28;20226;-80
2022/06/16 01:37:17;;;;;;;5.87;3.73;;;14.40;99.90;;;;;;4985314;28;20253;-80
2022/06/16 01:39:49;;;;;;;7.93;4.30;;;14.50;99.90;;;;;;4986239;28;20277;-81
2022/06/16 01:42:22;;;;;;;4.60;3.70;;;14.40;99.90;;;;;;4985601;28;20193;-80
2022/06/16 01:44:58;;;;;;;4.57;3.63;;;14.40;99.90;;;;;;4985491;28;20257;-81
2022/06/16 01:47:29;;;;;;;5.37;3.87;;;14.40;99.90;;;;;;4985964;28;20207;-81
2022/06/16 01:50:01;;;;;;;6.43;3.90;;;14.50;99.90;;;;;;4985956;28;20221;-80
2022/06/16 01:52:33;;;;;;;7.40;3.90;;;14.40;99.90;;;;;;4985416;28;20209;-80
2022/06/16 01:55:05;;;;;;;5.97;3.67;;;14.50;99.90;;;;;;4984427;28;20225;-80
2022/06/16 01:57:39;;;;;;;6.80;3.97;;;14.70;99.90;;;;;;4984432;28;20237;-80
2022/06/16 02:00:11;;;;;;;7.20;3.80;;;14.50;99.90;;;;;;4984268;28;20225;-81
2022/06/16 02:02:41;;;;;;;7.93;3.73;;;14.50;99.90;;;;;;4983801;28;20786;-81
2022/06/16 02:05:11;;;;;;;5.93;3.53;;;14.60;99.90;;;;;;4983905;28;20209;-81
2022/06/16 02:07:46;;;;;;;6.47;3.60;;;14.70;99.90;;;;;;4984288;28;20198;-81
2022/06/16 02:10:18;;;;;;;8.17;3.80;;;14.70;99.90;;;;;;4984435;28;20221;-81
2022/06/16 02:12:57;;;;;;;6.30;3.87;;;14.60;99.90;;;;;;4984261;28;20228;-81
2022/06/16 02:15:37;;;;;;;4.47;3.60;;;14.50;99.90;;;;;;4983794;28;20205;-81
2022/06/16 02:18:09;;;;;;;7.07;3.93;;;14.40;99.90;;;;;;4984220;28;20590;-81
2022/06/16 02:20:43;;;;;;;4.53;3.63;;;14.10;99.90;;;;;;4984429;28;20228;-80
2022/06/16 02:23:11;;;;;;;5.03;4.07;;;14.10;99.90;;;;;;4984730;28;20201;-80
2022/06/16 02:25:38;;;;;;;8.63;3.77;;;13.90;99.90;;;;;;4984005;28;20265;-80
2022/06/16 02:28:05;;;;;;;5.93;4.00;;;13.90;99.90;;;;;;4983892;28;20217;-80
2022/06/16 02:30:40;;;;;;;9.83;3.70;;;13.90;99.90;;;;;;4983079;28;20226;-81
2022/06/16 02:33:12;;;;;;;4.07;3.60;;;13.90;99.90;;;;;;4981075;28;20265;-81
2022/06/16 02:35:45;;;;;;;8.20;3.70;;;13.90;99.90;;;;;;4983895;28;20190;-80
2022/06/16 02:38:25;;;;;;;6.43;3.80;;;13.90;99.90;;;;;;4984071;28;20877;-80
2022/06/16 02:41:09;;;;;;;5.80;4.10;;;13.60;99.90;;;;;;4984336;28;20213;-81
2022/06/16 02:44:01;;;;;;;5.80;3.90;;;13.70;99.90;;;;;;4977225;28;20236;-81
2022/06/16 02:46:41;;;;;;;6.07;3.50;;;13.90;99.90;;;;;;4973937;28;20214;-80
2022/06/16 02:49:17;;;;;;;7.37;4.03;;;13.90;99.90;;;;;;4983994;28;20209;-80
2022/06/16 02:51:52;;;;;;;4.33;3.50;;;13.90;99.90;;;;;;4986557;28;20568;-80
2022/06/16 02:54:26;;;;;;;9.50;4.20;;;14.00;99.90;;;;;;4968148;28;20707;-80
2022/06/16 02:56:59;;;;;;;8.70;3.90;;;13.80;99.90;;;;;;4966534;28;20303;-80
2022/06/16 02:59:28;;;;;;;8.73;3.93;;;13.70;99.90;;;;;;4979440;28;20208;-80
2022/06/16 03:02:03;;;;;;;3.73;3.33;;;13.70;99.90;;;;;;4981429;28;20255;-79
2022/06/16 03:04:36;;;;;;;5.87;3.70;;;13.60;99.90;;;;;;4982725;28;20243;-80
2022/06/16 03:07:03;;;;;;;6.40;3.83;;;13.70;99.90;;;;;;4976866;28;22442;-81
2022/06/16 03:09:30;;;;;;;5.40;3.70;;;13.70;99.90;;;;;;4981559;28;20225;-80
2022/06/16 03:11:56;;;;;;;5.90;3.83;;;13.80;99.90;;;;;;4981811;28;20289;-80
2022/06/16 03:14:23;;;;;;;4.87;3.73;;;13.90;99.90;;;;;;4978902;28;20244;-80
2022/06/16 03:16:50;;;;;;;5.80;3.73;;;14.00;99.90;;;;;;4978942;28;20261;-80
2022/06/16 03:19:20;;;;;;;4.47;3.70;;;14.10;99.90;;;;;;4982173;28;20554;-80
2022/06/16 03:21:47;;;;;;;5.33;3.67;;;14.00;99.90;;;;;;4980903;28;20213;-80
2022/06/16 03:24:13;;;;;;;6.97;4.40;;;13.90;99.90;;;;;;4981516;28;20292;-80
2022/06/16 03:26:41;;;;;;;4.83;3.80;;;13.70;99.90;;;;;;4981200;28;20213;-80
2022/06/16 03:29:07;;;;;;;3.87;3.50;;;13.50;99.90;;;;;;4979832;28;20301;-80
2022/06/16 03:31:34;;;;;;;5.87;3.60;;;13.60;99.90;;;;;;4979261;28;20253;-80
2022/06/16 03:34:01;;;;;;;9.00;4.53;;;13.80;99.90;;;;;;4979386;28;20229;-79
2022/06/16 03:36:29;;;;;;;5.67;3.90;;;13.90;99.90;;;;;;4979290;28;20216;-80
2022/06/16 03:38:56;;;;;;;6.83;4.27;;;14.00;99.90;;;;;;4977719;28;20197;-81
2022/06/16 03:41:23;;;;;;;7.63;4.40;;;13.90;99.90;;;;;;4977894;28;20229;-80
2022/06/16 03:43:50;;;;;;;8.00;4.20;;;14.00;99.90;;;;;;4977666;28;20288;-81
2022/06/16 03:46:17;;;;;;;5.27;3.67;;;13.80;99.90;;;;;;4975962;28;20209;-80
2022/06/16 03:48:44;;;;;;;4.50;3.57;;;13.60;99.90;;;;;;4977406;28;20237;-80
2022/06/16 03:51:12;;;;;;;15.87;4.13;;;13.70;99.90;;;;;;4976235;28;20217;-81
2022/06/16 03:53:41;;;;;;;5.60;4.70;;;13.70;99.90;;;;;;4976267;28;20210;-79
2022/06/16 03:56:08;;;;;;;5.43;4.07;;;13.60;99.90;;;;;;4974657;28;20229;-80
2022/06/16 03:58:35;;;;;;;9.00;3.93;;;13.50;99.90;;;;;;4969833;28;20235;-80
2022/06/16 04:01:02;;;;;;;7.27;3.73;;;13.50;99.90;;;;;;4974281;28;20225;-80
2022/06/16 04:06:14;;;;;;;6.93;4.07;;;13.60;99.90;;;;;;4971943;28;20212;-80
2022/06/16 04:08:42;;;;;;;4.67;3.83;;;13.60;99.90;;;;;;4972296;28;20296;-80
2022/06/16 04:13:50;;;;;;;7.37;4.30;;;14.00;99.90;;;;;;4981774;28;20240;-80
2022/06/16 04:16:17;;;;;;;5.60;3.80;;;14.10;99.90;;;;;;4980800;28;20705;-79
2022/06/16 04:18:44;;;;;;;6.13;4.00;;;14.10;99.90;;;;;;4980866;28;20308;-80
2022/06/16 04:21:12;;;;;;;6.23;4.23;;;14.10;99.90;;;;;;4981780;28;20501;-81
2022/06/16 04:23:39;;;;;;;8.67;4.33;;;14.10;99.90;;;;;;4981217;28;20285;-82
2022/06/16 04:26:08;;;;;;;9.23;3.80;;;14.20;99.90;;;;;;4981415;28;20212;-81
2022/06/16 04:28:35;;;;;;;4.97;3.93;;;14.20;99.90;;;;;;4981522;28;20721;-81
2022/06/16 04:31:02;;;;;;;6.77;4.27;;;14.10;99.90;;;;;;4973049;28;20320;-81
2022/06/16 04:33:29;;;;;;;7.77;3.93;;;14.20;99.90;;;;;;4975776;28;20651;-81
2022/06/16 04:35:56;;;;;;;5.40;4.07;;;14.10;99.90;;;;;;4975531;28;20274;-82
2022/06/16 04:38:23;;;;;;;5.93;4.00;;;14.10;99.90;;;;;;4967511;28;20233;-82
2022/06/16 04:40:52;;;;;;;6.13;4.50;;;14.10;99.90;;;;;;4972888;28;20218;-81
2022/06/16 04:43:20;;;;;;;5.07;3.53;;;14.00;99.90;;;;;;4979207;28;20208;-82
2022/06/16 04:45:47;;;;;;;7.27;4.27;;;14.40;99.90;;;;;;4972794;28;20238;-82
2022/06/16 04:48:14;;;;;;;5.93;3.70;;;14.40;99.90;;;;;;4980761;28;20210;-82
2022/06/16 04:50:41;;;;;;;7.00;4.10;;;14.20;99.90;;;;;;4976675;28;20387;-83
2022/06/16 04:53:08;;;;;;;6.73;3.67;;;14.20;99.90;;;;;;4979432;28;20221;-82
2022/06/16 04:55:35;;;;;;;7.73;4.10;;;14.50;99.90;;;;;;4975640;28;20285;-81
2022/06/16 04:58:02;;;;;;;7.30;4.20;;;14.50;99.90;;;;;;4974454;28;20229;-80
2022/06/16 05:00:30;;;;;;;7.30;3.80;;;14.70;99.90;;;;;;4972188;28;20588;-82
2022/06/16 05:02:57;;;;;;;8.97;3.80;;;15.00;99.90;;;;;;4972586;28;20225;-82
2022/06/16 05:05:25;;;;;;;7.23;4.20;;;14.90;99.90;;;;;;4972697;28;20232;-81
2022/06/16 05:07:51;;;;;;;5.70;4.00;;;14.70;99.90;;;;;;4980768;28;20288;-81
2022/06/16 05:10:19;;;;;;;10.27;4.30;;;15.10;99.90;;;;;;4974485;28;20309;-81
2022/06/16 05:12:45;;;;;;;8.60;4.60;;;15.30;99.90;;;;;;4971905;28;20293;-81
2022/06/16 05:15:12;;;;;;;9.80;4.27;;;15.10;99.90;;;;;;4976200;28;20208;-83
2022/06/16 05:17:40;;;;;;;6.43;4.10;;;14.70;99.90;;;;;;4972320;28;20621;-82
2022/06/16 05:20:09;;;;;;;4.80;4.00;;;14.80;99.90;;;;;;4971778;28;20245;-83
2022/06/16 05:22:36;;;;;;;5.97;4.43;;;14.70;99.90;;;;;;4968536;28;20270;-81
2022/06/16 05:25:04;;;;;;;11.77;5.13;;;14.80;99.90;;;;;;4969738;28;20273;-82
2022/06/16 05:27:31;;;;;;;7.43;4.07;;;15.00;99.90;;;;;;4971137;28;20224;-82
2022/06/16 05:29:57;;;;;;;6.90;4.30;;;15.10;99.90;;;;;;4971678;28;20295;-81
2022/06/16 05:32:24;;;;;;;7.87;4.30;;;15.00;99.90;;;;;;4972004;28;20214;-81
2022/06/16 05:34:53;;;;;;;6.30;4.13;;;15.10;99.90;;;;;;4968756;28;20904;-81
2022/06/16 05:37:20;;;;;;;7.57;4.57;;;15.30;99.90;;;;;;4974099;28;20255;-81
2022/06/16 05:39:49;;;;;;;9.73;4.43;;;15.00;99.90;;;;;;4971750;28;20499;-81
2022/06/16 05:42:16;;;;;;;8.50;4.53;;;15.00;99.90;;;;;;4976429;28;20217;-80
2022/06/16 05:44:43;;;;;;;7.73;4.30;;;15.10;99.90;;;;;;4981279;28;20281;-81
2022/06/16 05:47:10;;;;;;;7.10;4.30;;;15.30;99.90;;;;;;4972185;28;20206;-80
2022/06/16 05:49:40;;;;;;;7.27;4.20;;;15.30;99.90;;;;;;4974602;28;20676;-81
2022/06/16 05:52:11;;;;;;;6.97;4.30;;;15.30;99.90;;;;;;4975848;28;20272;-80
2022/06/16 05:54:38;;;;;;;6.10;4.57;;;15.40;99.90;;;;;;4979023;28;20379;-79
2022/06/16 05:57:07;;;;;;;8.23;4.70;;;15.60;99.90;;;;;;4974558;28;20334;-79
2022/06/16 05:59:34;;;;;;;8.67;4.20;;;15.60;99.90;;;;;;4978870;28;20229;-81
2022/06/16 06:02:01;;;;;;;7.53;4.90;;;15.80;99.90;;;;;;4978282;28;20223;-81
2022/06/16 06:04:28;;;;;;;8.23;4.27;;;15.50;99.90;;;;;;4972394;28;20290;-80
2022/06/16 06:06:56;;;;;;;6.13;4.83;;;15.80;99.90;;;;;;4977257;28;20722;-83
2022/06/16 06:18:09;;;;;;;8.07;4.20;;;16.30;99.90;;;;;;4974290;28;20233;-81
2022/06/16 06:20:36;;;;;;;8.83;4.73;;;16.10;99.90;;;;;;4980709;28;20222;-82
2022/06/16 06:23:03;;;;;;;7.30;4.83;;;16.20;99.90;;;;;;4974153;28;20212;-81
2022/06/16 06:25:32;;;;;;;7.18;4.40;;;16.20;99.90;;;;;;4966721;28;20600;-81
2022/06/16 06:27:59;;;;;;;9.00;4.53;;;16.50;99.90;;;;;;4967011;28;20248;-81
2022/06/16 06:30:29;;;;;;;7.47;4.27;;;16.70;99.90;;;;;;4976254;28;20238;-80
2022/06/16 06:32:57;;;;;;;7.13;4.73;;;17.00;99.90;;;;;;4973693;28;20198;-82
2022/06/16 06:35:25;;;;;;;10.25;4.85;;;17.30;99.90;;;;;;4983506;28;20234;-81
2022/06/16 06:37:52;;;;;;;12.05;4.72;;;17.30;99.90;;;;;;4982648;28;20231;-81
2022/06/16 06:40:22;;;;;;;6.00;4.10;;;17.10;99.90;;;;;;4975860;28;20710;-81
2022/06/16 06:42:50;;;;;;;5.13;4.15;;;17.00;99.90;;;;;;4978085;28;20229;-82
2022/06/16 06:45:18;;;;;;;5.43;4.33;;;17.00;99.90;;;;;;4976641;28;20689;-80
2022/06/16 06:47:45;;;;;;;8.75;4.40;;;17.10;99.90;;;;;;4974535;28;20265;-79
2022/06/16 06:50:18;;;;;;;7.43;4.38;;;16.90;99.90;;;;;;4968714;28;20239;-80
2022/06/16 06:52:45;;;;;;;11.32;4.65;;;17.00;99.90;;;;;;4974005;28;20225;-80
2022/06/16 06:55:12;;;;;;;6.97;4.15;;;16.90;99.90;;;;;;4975566;28;20206;-80
2022/06/16 06:57:39;;;;;;;8.63;4.75;;;17.20;99.90;;;;;;4974330;28;20581;-80
2022/06/16 07:00:09;;;;;;;5.57;4.30;;;17.40;99.90;;;;;;4974122;28;20242;-80
2022/06/16 07:02:36;;;;;;;5.93;4.00;;;17.50;99.90;;;;;;4979668;28;20280;-80
2022/06/16 07:05:03;;;;;;;8.18;4.30;;;17.70;99.90;;;;;;4975984;28;20292;-80
2022/06/16 07:07:30;;;;;;;6.63;4.15;;;18.00;99.90;;;;;;4975890;28;20237;-80
2022/06/16 07:09:57;;;;;;;8.32;4.60;;;17.80;99.30;;;;;;4969991;28;20237;-80
2022/06/16 07:12:24;;;;;;;6.65;4.40;;;17.80;98.60;;;;;;4973564;28;20237;-79
2022/06/16 07:14:52;;;;;;;5.20;3.85;;;17.80;96.60;;;;;;4975205;28;20202;-79
2022/06/16 07:17:22;;;;;;;6.53;3.92;;;17.80;98.90;;;;;;4973401;28;20229;-81
2022/06/16 07:19:50;;;;;;;5.88;3.72;;;18.00;98.60;;;;;;4962676;28;20230;-79
2022/06/16 07:22:18;;;;;;;6.30;4.47;;;18.00;93.10;;;;;;4973909;28;20214;-79
2022/06/16 07:24:45;;;;;;;8.93;4.60;;;17.80;94.80;;;;;;4965484;28;20204;-79
2022/06/16 07:27:13;;;;;;;6.53;3.78;;;18.00;95.90;;;;;;4972631;28;20208;-80
2022/06/16 07:29:39;;;;;;;9.75;3.92;;;18.20;92.30;;;;;;4968856;28;20204;-80
2022/06/16 07:32:07;;;;;;;6.72;3.83;;;18.10;92.70;;;;;;4971664;28;20288;-80
2022/06/16 07:34:35;;;;;;;6.70;3.50;;;18.20;94.20;;;;;;4972047;28;20265;-80
2022/06/16 07:37:03;;;;;;;5.35;3.50;;;18.10;92.70;;;;;;4976308;28;20222;-80
2022/06/16 07:39:29;;;;;;;11.15;4.13;;;18.00;92.00;;;;;;4976662;28;20222;-80
2022/06/16 07:41:56;;;;;;;11.07;4.15;;;18.10;91.90;;;;;;4978765;28;20288;-80
2022/06/16 07:44:23;;;;;;;7.43;3.88;;;18.20;95.20;;;;;;4974859;28;20224;-80
2022/06/16 07:46:50;;;;;;;6.97;3.90;;;18.30;95.10;;;;;;4976347;28;20227;-80
2022/06/16 07:49:22;;;;;;;7.00;3.80;;;18.20;91.70;;;;;;4965022;28;20296;-80
2022/06/16 07:51:50;;;;;;;3.70;3.30;;;18.30;91.60;;;;;;4983535;28;20228;-80
2022/06/16 07:54:17;;;;;;;7.30;3.40;;;18.50;90.10;;;;;;4968843;28;20224;-80
2022/06/16 07:56:45;;;;;;;6.55;3.40;;;18.60;91.60;;;;;;4975792;28;20274;-80
2022/06/16 07:59:12;;;;;;;6.18;3.50;;;18.40;91.70;;;;;;4974310;28;20233;-80
2022/06/16 08:01:39;;;;;;;6.28;3.72;;;18.30;91.70;;;;;;4965359;28;20313;-79
2022/06/16 08:04:06;;;;;;;7.88;3.38;;;18.40;87.80;;;;;;4981619;28;20670;-80
2022/06/16 08:06:34;;;;;;;6.03;3.15;;;18.40;83.80;;;;;;4990077;28;20202;-80
2022/06/16 08:09:05;;;;;;;22.75;4.07;;;18.40;86.70;;;;;;4964753;28;20206;-79
2022/06/16 08:14:17;;;;;;;4.53;3.25;;;18.70;85.80;;;;;;4981837;28;20253;-80
2022/06/16 08:16:44;;;;;;;6.25;3.20;;;18.80;85.60;;;;;;4981121;28;20198;-80
2022/06/16 08:19:11;;;;;;;4.53;3.13;;;19.00;78.70;;;;;;4965546;28;20237;-80
2022/06/16 08:21:38;;;;;;;8.85;3.95;;;19.00;76.10;;;;;;4971637;28;20222;-80
2022/06/16 08:24:07;;;;;;;7.30;3.50;;;19.10;76.80;;;;;;4976398;28;20210;-80
2022/06/16 08:26:36;;;;;;;7.80;3.13;;;19.30;76.60;;;;;;4984308;28;20290;-80
2022/06/16 08:29:03;;;;;;;4.13;3.08;;;19.20;71.10;;;;;;4977459;28;20662;-80
2022/06/16 08:31:30;;;;;;;5.30;3.13;;;19.20;80.80;;;;;;4985378;28;20272;-80
2022/06/16 08:33:57;;;;;;;5.60;3.40;;;19.20;73.70;;;;;;4983681;28;20205;-79
2022/06/16 08:36:24;;;;;;;7.10;3.47;;;19.20;85.00;;;;;;4985383;28;20200;-80
2022/06/16 08:38:51;;;;;;;7.03;3.25;;;19.20;74.60;;;;;;4973329;28;20316;-80
2022/06/16 08:41:26;;;;;;;6.07;3.13;;;19.40;77.70;;;;;;4977944;28;20222;-81
2022/06/16 08:44:03;;;;;;;6.38;3.38;;;19.40;76.40;;;;;;4983897;28;20211;-81
2022/06/16 08:46:36;;;;;;;4.65;3.10;;;19.50;74.90;;;;;;4983763;28;20217;-80
2022/06/16 08:49:10;;;;;;;3.25;2.95;;;19.50;73.20;;;;;;4967968;28;20264;-81
2022/06/16 08:51:50;;;;;;;6.65;3.33;;;19.60;65.20;;;;;;4980036;28;20253;-81
2022/06/16 08:54:32;;;;;;;8.73;3.50;;;20.10;67.40;;;;;;4964919;28;20727;-80
2022/06/16 08:57:09;;;;;;;4.55;3.42;;;20.20;69.00;;;;;;4982476;28;20273;-81
2022/06/16 08:59:43;;;;;;;9.55;3.65;;;20.40;68.00;;;;;;4974625;28;20241;-80
2022/06/16 09:02:17;;;;;;;6.25;3.85;;;21.20;66.70;;;;;;4983305;28;20264;-81
2022/06/16 09:04:50;;;;;;;4.95;3.70;;;21.10;54.10;;;;;;4984903;28;20577;-81
2022/06/16 09:07:27;;;;;;;4.38;3.00;;;21.20;55.10;;;;;;4981230;28;20282;-81
2022/06/16 09:10:17;;;;;;;5.95;3.40;;;21.50;50.50;;;;;;4980998;28;20218;-82
2022/06/16 09:13:12;;;;;;;3.17;2.85;;;21.70;46.70;;;;;;4977830;28;20253;-81
2022/06/16 09:15:46;;;;;;;9.45;4.00;;;21.50;50.80;;;;;;4973293;28;20644;-81
2022/06/16 09:18:33;;;;;;;5.88;3.42;;;21.40;54.80;;;;;;4977280;28;20202;-80
2022/06/16 09:21:10;;;;;;;5.75;3.20;;;21.80;53.70;;;;;;4967667;28;20230;-80
2022/06/16 09:23:59;;;;;;;7.65;3.65;;;22.10;46.90;;;;;;4967985;28;20645;-81
2022/06/16 09:26:32;;;;;;;7.50;3.22;;;22.10;57.20;;;;;;4975452;28;20209;-80
2022/06/16 09:29:06;;;;;;;5.18;2.97;;;22.00;54.10;;;;;;4975645;28;20229;-80
2022/06/16 09:31:39;;;;;;;5.18;3.53;;;22.80;49.80;;;;;;4972144;28;20241;-80
2022/06/16 09:34:12;;;;;;;6.57;3.38;;;23.20;55.60;;;;;;4974249;28;20202;-79
2022/06/16 09:36:43;;;;;;;6.35;3.40;;;22.50;50.10;;;;;;4971530;28;20216;-79
2022/06/16 09:39:17;;;;;;;6.43;3.35;;;22.10;50.40;;;;;;4968100;28;20670;-80
2022/06/16 09:44:42;;;;;;;6.25;3.20;;;22.20;48.90;;;;;;4975747;28;20262;-80
2022/06/16 09:47:13;;;;;;;4.50;3.60;;;23.10;44.20;;;;;;4973810;28;20198;-80
2022/06/16 09:49:44;;;;;;;4.78;2.92;;;23.40;42.70;;;;;;4972270;28;20201;-80
2022/06/16 09:52:16;;;;;;;4.47;2.95;;;22.90;45.60;;;;;;4972808;28;20292;-79
2022/06/16 09:54:45;;;;;;;3.78;2.90;;;22.80;46.90;;;;;;4974650;28;20289;-80
2022/06/16 09:57:18;;;;;;;6.20;3.85;;;23.40;41.50;;;;;;4975979;28;20221;-80
2022/06/16 09:59:52;;;;;;;4.82;3.63;;;23.10;39.60;;;;;;4976288;28;20248;-80
2022/06/16 10:02:22;;;;;;;4.07;2.78;;;22.50;37.40;;;;;;4977690;28;20201;-80
2022/06/16 10:04:50;;;;;;;6.72;3.38;;;22.50;40.30;;;;;;4974214;28;20202;-80
2022/06/16 10:07:24;;;;;;;5.75;3.80;;;23.10;40.70;;;;;;4973943;28;20205;-79
2022/06/16 10:09:58;;;;;;;4.82;3.45;;;23.20;46.40;;;;;;4977164;28;20249;-80
2022/06/16 10:12:46;;;;;;;5.93;3.33;;;23.20;42.50;;;;;;4974700;28;20293;-79
2022/06/16 10:15:20;;;;;;;4.70;3.45;;;22.70;44.60;;;;;;4968740;28;20206;-82
2022/06/16 10:17:50;;;;;;;7.40;3.15;;;23.50;41.50;;;;;;4966133;28;20216;-81
2022/06/16 10:20:19;;;;;;;6.95;3.58;;;23.20;40.60;;;;;;4961043;28;20257;-81
2022/06/16 10:22:49;;;;;;;3.15;2.63;;;23.20;38.10;;;;;;4961591;28;20210;-81
2022/06/16 10:25:20;;;;;;;5.30;2.92;;;23.60;38.20;;;;;;4961968;28;20274;-80
2022/06/16 10:27:51;;;;;;;4.63;3.53;;;24.00;38.00;;;;;;4959962;28;20229;-79
2022/06/16 10:30:26;;;;;;;5.47;3.20;;;23.50;37.20;;;;;;4964849;28;20228;-80
2022/06/16 10:33:01;;;;;;;5.72;3.17;;;24.30;33.80;;;;;;4960897;28;20651;-80
2022/06/16 10:35:28;;;;;;;5.20;3.50;;;24.50;32.60;;;;;;4957083;28;20213;-80
2022/06/16 10:37:55;;;;;;;4.75;2.75;;;23.90;33.20;;;;;;4958107;28;20300;-82
2022/06/16 10:40:29;;;;;;;3.17;2.88;;;24.40;33.80;;;;;;4958256;28;20252;-80
2022/06/16 10:43:00;;;;;;;6.28;3.47;;;25.00;29.20;;;;;;4960477;28;20206;-80
2022/06/16 10:45:31;;;;;;;3.00;2.72;;;24.80;28.30;;;;;;4963892;28;20304;-80
2022/06/16 10:48:01;;;;;;;6.05;3.20;;;24.90;28.20;;;;;;4967668;28;20202;-81
2022/06/16 10:50:33;;;;;;;6.95;3.25;;;24.30;29.10;;;;;;4965755;28;20217;-80
2022/06/16 10:53:04;;;;;;;4.00;2.85;;;23.60;32.00;;;;;;4968305;28;20259;-80
2022/06/16 10:55:37;;;;;;;6.38;2.95;;;24.10;34.70;;;;;;4965193;28;20224;-80
2022/06/16 10:58:16;;;;;;;7.60;3.25;;;25.00;34.20;;;;;;4972456;28;20265;-81
2022/06/16 11:01:00;;;;;;;5.60;3.58;;;25.20;29.80;;;;;;4971311;28;20257;-81
2022/06/16 11:03:27;;;;;;;5.05;3.15;;;24.00;31.80;;;;;;4972503;28;20205;-81
2022/06/16 11:05:57;;;;;;;5.70;3.45;;;23.70;33.80;;;;;;4974145;28;20202;-81
2022/06/16 11:08:26;;;;;;;4.30;3.30;;;24.30;30.30;;;;;;4973472;28;20630;-80
2022/06/16 11:10:56;;;;;;;3.92;3.25;;;24.70;27.20;;;;;;4969995;28;20222;-81
2022/06/16 11:13:28;;;;;;;6.18;2.65;;;24.20;29.70;;;;;;4975578;28;20207;-81
2022/06/16 11:15:56;;;;;;;3.85;2.88;;;24.90;29.30;;;;;;4969541;28;20206;-82
2022/06/16 11:18:29;;;;;;;4.38;2.53;;;25.00;27.10;;;;;;4976161;28;20209;-80
2022/06/16 11:20:59;;;;;;;4.75;3.13;;;24.60;32.10;;;;;;4961593;28;20276;-83
2022/06/16 11:23:31;;;;;;;4.45;2.75;;;25.30;31.40;;;;;;4985414;28;20205;-84
2022/06/16 11:26:09;;;;;;;5.10;2.60;;;25.30;29.50;;;;;;4982261;28;20279;-85
2022/06/16 11:28:44;;;;;;;3.25;2.30;;;25.70;28.70;;;;;;4983160;28;20240;-85
2022/06/16 11:31:17;;;;;;;3.58;2.40;;;25.60;28.60;;;;;;4980924;28;20284;-84
2022/06/16 11:36:57;;;;;;;7.32;2.92;;;25.80;26.90;;;;;;4978028;28;20224;-83
2022/06/16 11:39:34;;;;;;;3.15;2.17;;;25.50;26.70;;;;;;4979006;28;20308;-83
2022/06/16 11:42:01;;;;;;;4.20;2.88;;;25.80;26.70;;;;;;4981557;28;20219;-84
2022/06/16 11:44:44;;;;;;;2.70;2.15;;;26.20;26.30;;;;;;4979033;28;20631;-84
2022/06/16 11:47:27;;;;;;;4.53;2.30;;;25.70;25.00;;;;;;4978027;28;20202;-83
2022/06/16 11:50:01;;;;;;;3.08;2.00;;;25.90;25.90;;;;;;4985143;28;20214;-82
2022/06/16 11:52:34;;;;;;;2.28;2.08;;;26.30;22.70;;;;;;4979178;28;20209;-84
2022/06/16 11:55:10;;;;;;;2.58;2.22;;;25.90;19.80;;;;;;4976733;28;20300;-83
2022/06/16 11:57:43;;;;;;;2.60;2.40;;;25.80;19.40;;;;;;4982892;28;20205;-84
2022/06/16 12:00:21;;;;;;;2.17;1.90;;;25.40;20.90;;;;;;4976923;28;20225;-84
2022/06/16 12:03:15;;;;;;;3.22;1.98;;;24.20;23.80;;;;;;4978357;28;20554;-84
2022/06/16 12:05:47;;;;;;;4.95;2.28;;;25.50;22.90;;;;;;4985015;28;20221;-85
2022/06/16 12:08:44;;;;;;;2.30;1.90;;;25.70;18.90;;;;;;4980662;28;20198;-83
2022/06/16 12:11:16;;;;;;;4.30;2.00;;;25.40;19.70;;;;;;4972354;28;20698;-84
2022/06/16 12:13:51;;;;;;;3.13;1.83;;;26.40;20.70;;;;;;4977147;28;20208;-84
2022/06/16 12:16:25;;;;;;;1.92;1.77;;;25.10;18.70;;;;;;5001368;28;20603;-84
2022/06/16 12:19:04;;;;;;;2.20;1.65;;;25.10;19.20;;;;;;5012032;28;20661;-84
2022/06/16 12:21:38;;;;;;;3.40;2.22;;;26.10;21.10;;;;;;4999770;28;20312;-83
2022/06/16 12:24:14;;;;;;;3.30;1.65;;;24.90;18.90;;;;;;4984639;28;20269;-84
2022/06/16 12:26:51;;;;;;;3.28;1.60;;;24.60;17.30;;;;;;4981577;28;20206;-84
2022/06/16 12:29:26;;;;;;;2.65;1.90;;;25.30;18.40;;;;;;4981187;28;20205;-84
2022/06/16 12:32:02;;;;;;;6.10;2.10;;;25.30;16.50;;;;;;4980547;28;20209;-86
2022/06/16 12:34:38;;;;;;;2.90;1.73;;;24.90;17.60;;;;;;4981137;28;20201;-84
2022/06/16 12:37:10;;;;;;;4.22;1.60;;;25.90;18.70;;;;;;4982330;28;20207;-83
2022/06/16 12:39:43;;;;;;;1.85;1.27;;;26.00;16.40;;;;;;4981395;28;20324;-83
2022/06/16 12:42:14;;;;;;;1.80;1.70;;;26.20;13.00;;;;;;4980694;28;20300;-84
2022/06/16 12:44:45;;;;;;;4.03;1.80;;;25.20;18.90;;;;;;4980986;28;20205;-84
2022/06/16 12:47:17;;;;;;;3.33;1.65;;;26.00;14.60;;;;;;4981989;28;20216;-84
2022/06/16 12:49:52;;;;;;;6.43;1.90;;;25.90;13.60;;;;;;4983450;28;20792;-85
2022/06/16 12:52:24;;;;;;;3.25;1.60;;;26.40;15.70;;;;;;4982786;28;20292;-84
2022/06/16 12:54:58;;;;;;;2.70;1.38;;;26.10;15.60;;;;;;4982010;28;20204;-85
2022/06/16 12:57:31;;;;;;;2.35;1.17;;;26.00;16.40;;;;;;4981434;28;20632;-84
2022/06/16 13:00:01;;;;;;;2.80;1.20;;;25.50;14.40;;;;;;4980655;28;20224;-82
2022/06/16 13:02:34;;;;;;;3.33;1.20;;;24.80;14.70;;;;;;4980867;28;20216;-84
2022/06/16 13:05:08;;;;;;;5.03;1.30;;;25.00;15.50;;;;;;4980566;28;20593;-82
2022/06/16 13:07:38;;;;;;;3.67;2.22;;;24.90;15.60;;;;;;4980243;28;20272;-83
2022/06/16 13:10:06;;;;;;;1.00;1.00;;;24.80;13.70;;;;;;4979596;28;20601;-82
2022/06/16 13:12:36;;;;;;;1.75;1.45;;;24.60;14.40;;;;;;4979480;28;20220;-83
2022/06/16 13:15:08;;;;;;;3.55;1.38;;;24.50;15.80;;;;;;4981498;28;20193;-84
2022/06/16 13:17:38;;;;;;;1.10;1.00;;;25.40;14.80;;;;;;4986195;28;20194;-83
2022/06/16 13:20:11;;;;;;;1.80;1.23;;;25.40;11.40;;;;;;4986081;28;20306;-83
2022/06/16 13:22:41;;;;;;;3.63;1.40;;;26.00;12.50;;;;;;4980498;28;20200;-83
2022/06/16 13:25:11;;;;;;;1.35;1.25;;;25.20;15.80;;;;;;4981337;28;20217;-83
2022/06/16 13:27:47;;;;;;;1.83;1.20;;;25.90;11.50;;;;;;4982390;28;20269;-84
2022/06/16 13:30:22;;;;;;;1.55;1.20;;;25.80;11.90;;;;;;4983173;28;20228;-83